Time;durP1;ratioP1;P1;durP2;ratioP2;P2;SDS_P1;SDS_P2;PMS_P1;PMS_P2;Temp;Humidity;BMP_temperature;BMP_pressure;BME280_temperature;BME280_humidity;BME280_pressure;Samples;Min_cycle;Max_cycle;Signal;HPM_P1;HPM_P2
2022/11/20 00:02:28;;;;;;;;;;;;;;;24.67;47.33;93789.84;5012182;28;7402;-62
2022/11/20 00:04:55;;;;;;;;;;;;;;;24.67;47.07;93797.34;4998287;28;7039;-62
2022/11/20 00:07:22;;;;;;;;;;;;;;;24.64;46.89;93799.13;4993776;28;9424;-61
2022/11/20 00:09:48;;;;;;;;;;;;;;;24.63;47.06;93800.41;5004337;28;8392;-62
2022/11/20 00:12:15;;;;;;;;;;;;;;;24.60;47.41;93806.94;4984492;28;7053;-62
2022/11/20 00:14:53;;;;;;;;;;;;;;;24.62;47.44;93801.66;5002304;28;9091;-62
2022/11/20 00:17:19;;;;;;;;;;;;;;;24.62;46.79;93804.41;4983004;28;7039;-62
2022/11/20 00:20:04;;;;;;;;;;;;;;;24.63;47.35;93810.66;5005028;28;7568;-62
2022/11/20 00:22:30;;;;;;;;;;;;;;;24.62;47.53;93804.41;5010312;28;7883;-62
2022/11/20 00:24:58;;;;;;;;;;;;;;;24.61;47.25;93811.19;4998740;28;6968;-62
2022/11/20 00:27:27;;;;;;;;;;;;;;;24.61;47.46;93807.69;4981589;28;7018;-62
2022/11/20 00:30:03;;;;;;;;;;;;;;;24.61;47.33;93808.44;4997128;28;7176;-62
2022/11/20 00:32:38;;;;;;;;;;;;;;;24.61;47.57;93813.94;4993372;28;7100;-61
2022/11/20 00:35:09;;;;;;;;;;;;;;;24.61;47.47;93816.69;4989416;28;7773;-62
2022/11/20 00:37:55;;;;;;;;;;;;;;;24.61;47.12;93811.19;4986066;28;7042;-62
2022/11/20 00:40:21;;;;;;;;;;;;;;;24.61;47.03;93819.44;4994286;28;7300;-62
2022/11/20 00:42:48;;;;;;;;;;;;;;;24.62;47.10;93818.16;4989031;28;7696;-62
2022/11/20 00:45:15;;;;;;;;;;;;;;;24.62;47.54;93820.91;4992687;28;7402;-62
2022/11/20 00:47:41;;;;;;;;;;;;;;;24.61;47.03;93819.44;4980100;28;7070;-62
2022/11/20 00:50:07;;;;;;;;;;;;;;;24.62;47.73;93823.66;4984297;28;7226;-62
2022/11/20 00:52:33;;;;;;;;;;;;;;;24.61;46.95;93818.69;4976720;28;7731;-62
2022/11/20 00:55:01;;;;;;;;;;;;;;;24.63;46.94;93822.41;5002296;28;7357;-62
2022/11/20 00:57:32;;;;;;;;;;;;;;;24.66;47.17;93826.84;4994485;28;7253;-62
2022/11/20 00:59:59;;;;;;;;;;;;;;;24.64;47.04;93825.91;4989457;28;7863;-62
2022/11/20 01:02:32;;;;;;;;;;;;;;;24.63;47.15;93825.16;5001039;28;7998;-62
2022/11/20 01:05:00;;;;;;;;;;;;;;;24.64;46.83;93829.38;4996734;28;7217;-62
2022/11/20 01:07:28;;;;;;;;;;;;;;;24.65;47.17;93830.13;4993177;28;7211;-62
2022/11/20 01:10:28;;;;;;;;;;;;;;;24.65;46.56;93828.13;4992808;28;9420;-61
2022/11/20 01:16:02;;;;;;;;;;;;;;;24.64;47.09;93828.66;4987538;28;7249;-62
2022/11/20 01:18:39;;;;;;;;;;;;;;;24.63;46.98;93829.91;4984924;28;7042;-62
2022/11/20 01:21:16;;;;;;;;;;;;;;;24.64;46.85;93834.16;4976347;28;7231;-62
2022/11/20 01:23:51;;;;;;;;;;;;;;;24.63;47.18;93835.41;4989456;28;7486;-62
2022/11/20 01:26:21;;;;;;;;;;;;;;;24.63;47.46;93838.16;4975910;28;7872;-61
2022/11/20 01:28:50;;;;;;;;;;;;;;;24.63;46.61;93833.41;4974773;28;7049;-62
2022/11/20 01:31:25;;;;;;;;;;;;;;;24.64;47.18;93834.16;4974528;28;7109;-61
2022/11/20 01:34:09;;;;;;;;;;;;;;;24.64;47.26;93834.16;4978936;28;7152;-62
2022/11/20 01:36:37;;;;;;;;;;;;;;;24.62;47.46;93837.41;4991260;28;9091;-61
2022/11/20 01:39:36;;;;;;;;;;;;;;;24.63;47.71;93838.91;4991456;28;7204;-61
2022/11/20 01:45:00;;;;;;;;;;;;;;;24.63;47.61;93852.66;4945502;28;7372;-62
2022/11/20 01:47:33;;;;;;;;;;;;;;;24.63;46.67;93849.91;4938564;28;7300;-61
2022/11/20 01:50:24;;;;;;;;;;;;;;;24.62;46.83;93845.66;4931436;29;9209;-62
2022/11/20 01:53:01;;;;;;;;;;;;;;;24.62;47.49;93844.94;4892961;29;7037;-62
2022/11/20 01:55:35;;;;;;;;;;;;;;;24.61;47.25;93846.19;4925633;29;7299;-62
2022/11/20 01:58:29;;;;;;;;;;;;;;;24.61;47.38;93846.19;4938768;28;7202;-62
2022/11/20 02:01:04;;;;;;;;;;;;;;;24.61;46.80;93846.94;4920315;29;7267;-61
2022/11/20 02:03:35;;;;;;;;;;;;;;;24.62;47.24;93844.94;4918059;29;9058;-61
2022/11/20 02:06:11;;;;;;;;;;;;;;;24.61;46.84;93852.44;4929843;29;8985;-62
2022/11/20 02:08:46;;;;;;;;;;;;;;;24.58;46.90;93844.44;4917830;29;7839;-62
2022/11/20 02:11:15;;;;;;;;;;;;;;;24.60;47.24;93845.44;4917898;29;7045;-61
2022/11/20 02:14:00;;;;;;;;;;;;;;;24.60;46.74;93839.94;4943333;28;9447;-62
2022/11/20 02:16:34;;;;;;;;;;;;;;;24.59;47.24;93837.69;4932698;29;7046;-62
2022/11/20 02:19:11;;;;;;;;;;;;;;;24.59;46.91;93841.19;4987036;28;7034;-62
2022/11/20 02:21:51;;;;;;;;;;;;;;;24.59;47.22;93843.94;4976706;28;7038;-62
2022/11/20 02:24:23;;;;;;;;;;;;;;;24.59;46.97;93843.19;4999750;28;7065;-61
2022/11/20 02:27:03;;;;;;;;;;;;;;;24.60;47.30;93844.66;4983892;28;7412;-62
2022/11/20 02:29:41;;;;;;;;;;;;;;;24.58;47.11;93845.19;4983777;28;9222;-61
2022/11/20 02:32:20;;;;;;;;;;;;;;;24.60;47.12;93845.44;4987620;28;7943;-61
2022/11/20 02:34:48;;;;;;;;;;;;;;;24.58;47.27;93847.94;4992255;28;7102;-62
2022/11/20 02:37:14;;;;;;;;;;;;;;;24.59;46.99;93848.69;5004240;28;7167;-62
2022/11/20 02:39:41;;;;;;;;;;;;;;;24.58;46.65;93850.69;4989414;28;6971;-62
2022/11/20 02:42:10;;;;;;;;;;;;;;;24.60;46.70;93850.94;4985809;28;7082;-62
2022/11/20 02:44:40;;;;;;;;;;;;;;;24.59;47.26;93852.19;4983231;28;7044;-62
2022/11/20 02:47:41;;;;;;;;;;;;;;;24.59;47.61;93852.19;4982694;28;9470;-62
2022/11/20 02:50:14;;;;;;;;;;;;;;;24.59;47.16;93841.19;4935329;28;7463;-62
2022/11/20 02:52:41;;;;;;;;;;;;;;;24.57;47.40;93846.47;4951581;28;7437;-62
2022/11/20 02:55:10;;;;;;;;;;;;;;;24.60;46.77;93844.66;4951025;28;7073;-62
2022/11/20 02:57:36;;;;;;;;;;;;;;;24.60;47.29;93842.69;4953235;28;9371;-62
2022/11/20 03:00:08;;;;;;;;;;;;;;;24.59;46.98;93843.94;4942104;28;7331;-62
2022/11/20 03:02:34;;;;;;;;;;;;;;;24.58;47.32;93845.19;4935272;28;6982;-62
2022/11/20 03:05:00;;;;;;;;;;;;;;;24.59;46.97;93843.94;4935736;28;7183;-61
2022/11/20 03:07:26;;;;;;;;;;;;;;;24.59;47.23;93846.69;4937658;28;7077;-62
2022/11/20 03:09:52;;;;;;;;;;;;;;;24.58;46.81;93845.19;4938602;28;7290;-61
2022/11/20 03:12:30;;;;;;;;;;;;;;;24.57;47.44;93840.97;4942311;28;7311;-62
2022/11/20 03:15:08;;;;;;;;;;;;;;;24.59;46.75;93843.19;4934369;29;9188;-62
2022/11/20 03:17:39;;;;;;;;;;;;;;;24.59;47.20;93841.19;4935815;29;9115;-61
2022/11/20 03:20:15;;;;;;;;;;;;;;;24.56;46.91;93839.47;4933485;29;7390;-62
2022/11/20 03:23:00;;;;;;;;;;;;;;;24.57;47.06;93840.97;4936249;29;9392;-62
2022/11/20 03:25:33;;;;;;;;;;;;;;;24.58;46.78;93842.44;4942936;28;7392;-62
2022/11/20 03:28:00;;;;;;;;;;;;;;;24.59;46.66;93843.94;4999424;28;7212;-61
2022/11/20 03:30:26;;;;;;;;;;;;;;;24.59;47.57;93849.44;4990441;28;8429;-62
2022/11/20 03:32:53;;;;;;;;;;;;;;;24.59;46.89;93846.69;4989695;28;7298;-60
2022/11/20 03:35:30;;;;;;;;;;;;;;;24.61;46.70;93840.69;4992763;28;7023;-60
2022/11/20 03:37:57;;;;;;;;;;;;;;;24.60;47.15;93844.66;4991850;28;7386;-61
2022/11/20 03:40:25;;;;;;;;;;;;;;;24.59;47.21;93841.19;4979974;28;7234;-61
2022/11/20 03:42:52;;;;;;;;;;;;;;;24.60;47.01;93850.16;4994582;28;7737;-61
2022/11/20 03:45:27;;;;;;;;;;;;;;;24.60;46.71;93845.44;4997589;28;9081;-61
2022/11/20 03:48:02;;;;;;;;;;;;;;;24.59;46.49;93846.69;4984988;28;7823;-61
2022/11/20 03:50:30;;;;;;;;;;;;;;;24.57;46.69;93846.47;4990667;28;9531;-61
2022/11/20 03:52:56;;;;;;;;;;;;;;;24.59;47.26;93851.44;4991215;28;7283;-61
2022/11/20 03:55:21;;;;;;;;;;;;;;;24.59;46.85;93851.44;4985527;28;7096;-61
2022/11/20 03:58:17;;;;;;;;;;;;;;;24.60;46.55;93855.66;5005101;28;7140;-61
2022/11/20 04:01:24;;;;;;;;;;;;;;;24.58;47.29;93853.44;4989738;28;7110;-61
2022/11/20 04:03:53;;;;;;;;;;;;;;;24.57;46.42;93851.22;4941076;28;7661;-61
2022/11/20 04:06:23;;;;;;;;;;;;;;;24.58;47.09;93858.94;4940880;28;7135;-61
2022/11/20 04:08:58;;;;;;;;;;;;;;;24.58;46.64;93853.44;4939992;28;9101;-61
2022/11/20 04:11:28;;;;;;;;;;;;;;;24.58;47.14;93853.44;4957039;28;7172;-61
2022/11/20 04:14:02;;;;;;;;;;;;;;;24.59;46.68;93862.44;4956093;28;7134;-61
2022/11/20 04:16:35;;;;;;;;;;;;;;;24.58;47.04;93864.44;4952318;28;8161;-61
2022/11/20 04:19:15;;;;;;;;;;;;;;;24.58;46.61;93867.19;4954718;28;7454;-62
2022/11/20 04:21:43;;;;;;;;;;;;;;;24.57;46.66;93862.97;4943609;28;7845;-61
2022/11/20 04:24:15;;;;;;;;;;;;;;;24.59;47.13;93859.69;4954468;28;7033;-61
2022/11/20 04:26:41;;;;;;;;;;;;;;;24.58;47.06;93852.69;4956576;28;7366;-61
2022/11/20 04:29:10;;;;;;;;;;;;;;;24.55;47.08;93848.25;4963993;28;7061;-61
2022/11/20 04:31:38;;;;;;;;;;;;;;;24.57;46.84;93848.47;4965348;28;8245;-62
2022/11/20 04:34:07;;;;;;;;;;;;;;;24.56;47.42;93855.97;4959058;28;7220;-61
2022/11/20 04:36:34;;;;;;;;;;;;;;;24.56;46.88;93853.22;4938906;28;7059;-61
2022/11/20 04:39:04;;;;;;;;;;;;;;;24.61;46.83;93860.66;4987933;28;7471;-61
2022/11/20 04:41:34;;;;;;;;;;;;;;;24.62;46.50;93853.91;4986933;28;9638;-61
2022/11/20 04:44:05;;;;;;;;;;;;;;;24.61;47.11;93857.94;4982147;28;9465;-61
2022/11/20 04:46:34;;;;;;;;;;;;;;;24.60;47.05;93855.66;4966317;28;7331;-61
2022/11/20 04:49:03;;;;;;;;;;;;;;;24.59;46.87;93860.44;4992359;28;7376;-61
2022/11/20 04:51:29;;;;;;;;;;;;;;;24.58;46.81;93850.69;4984383;28;7051;-61
2022/11/20 04:53:56;;;;;;;;;;;;;;;24.58;46.64;93852.69;4993494;28;7049;-61
2022/11/20 04:56:28;;;;;;;;;;;;;;;24.59;46.38;93849.44;4986290;28;7349;-61
2022/11/20 04:59:01;;;;;;;;;;;;;;;24.58;47.24;93852.69;4986323;28;7250;-61
2022/11/20 05:01:30;;;;;;;;;;;;;;;24.56;46.88;93849.72;4985022;28;7147;-61
2022/11/20 05:04:01;;;;;;;;;;;;;;;24.56;46.50;93847.72;5005872;28;7029;-61
2022/11/20 05:06:33;;;;;;;;;;;;;;;24.57;47.01;93851.97;4997927;28;8484;-61
2022/11/20 05:09:03;;;;;;;;;;;;;;;24.56;47.11;93844.97;4993631;28;7300;-61
2022/11/20 05:11:38;;;;;;;;;;;;;;;24.58;46.32;93853.44;4978773;28;7090;-61
2022/11/20 05:14:06;;;;;;;;;;;;;;;24.60;46.50;93856.44;4984111;28;7110;-61
2022/11/20 05:16:34;;;;;;;;;;;;;;;24.59;46.52;93848.69;4984187;28;8187;-61
2022/11/20 05:19:00;;;;;;;;;;;;;;;24.60;47.03;93853.69;4991463;28;7136;-61
2022/11/20 05:21:26;;;;;;;;;;;;;;;24.61;46.54;93855.19;5005097;28;8942;-62
2022/11/20 05:24:02;;;;;;;;;;;;;;;24.61;46.71;93852.44;4976853;28;9130;-61
2022/11/20 05:26:29;;;;;;;;;;;;;;;24.61;46.99;93855.19;4977823;28;9074;-61
2022/11/20 05:28:57;;;;;;;;;;;;;;;24.61;47.17;93852.44;4991833;28;7297;-61
2022/11/20 05:31:28;;;;;;;;;;;;;;;24.62;46.83;93842.91;5006578;28;9335;-61
2022/11/20 05:33:57;;;;;;;;;;;;;;;24.63;46.41;93863.66;4986186;28;7033;-61
2022/11/20 05:36:26;;;;;;;;;;;;;;;24.63;46.63;93858.16;4983525;28;9460;-61
2022/11/20 05:38:54;;;;;;;;;;;;;;;24.63;46.89;93860.91;4993592;28;6872;-61
2022/11/20 05:41:30;;;;;;;;;;;;;;;24.65;46.64;93863.13;4992822;28;7349;-61
2022/11/20 05:43:57;;;;;;;;;;;;;;;24.63;46.92;93865.66;4984814;28;8276;-61
2022/11/20 05:46:25;;;;;;;;;;;;;;;24.60;46.43;93856.44;4987505;28;7290;-61
2022/11/20 05:49:00;;;;;;;;;;;;;;;24.62;46.46;93862.16;4990297;28;7494;-61
2022/11/20 05:51:27;;;;;;;;;;;;;;;24.62;46.73;93864.19;4980179;28;7352;-61
2022/11/20 05:54:00;;;;;;;;;;;;;;;24.61;46.53;93857.19;4986563;28;7039;-61
2022/11/20 05:56:28;;;;;;;;;;;;;;;24.61;46.62;93868.16;4982576;28;7221;-61
2022/11/20 05:58:56;;;;;;;;;;;;;;;24.60;46.59;93855.66;5005420;28;7245;-61
2022/11/20 06:01:30;;;;;;;;;;;;;;;24.60;46.75;93863.91;4983938;28;7393;-61
2022/11/20 06:04:02;;;;;;;;;;;;;;;24.63;46.28;93882.91;4985466;28;10416;-62
2022/11/20 06:06:29;;;;;;;;;;;;;;;24.61;46.50;93874.41;4988274;28;7600;-61
2022/11/20 06:08:58;;;;;;;;;;;;;;;24.62;46.64;93878.66;4977410;28;7089;-61
2022/11/20 06:11:25;;;;;;;;;;;;;;;24.64;46.82;93878.16;4982255;28;7048;-61
2022/11/20 06:13:52;;;;;;;;;;;;;;;24.64;46.68;93878.16;4978202;28;7100;-61
2022/11/20 06:16:20;;;;;;;;;;;;;;;24.65;46.26;93876.88;4981671;28;9249;-61
2022/11/20 06:18:46;;;;;;;;;;;;;;;24.65;46.14;93868.63;4987431;28;7301;-61
2022/11/20 06:21:15;;;;;;;;;;;;;;;24.65;46.74;93880.38;5001468;28;7407;-61
2022/11/20 06:23:44;;;;;;;;;;;;;;;24.64;46.84;93878.88;4983700;28;8995;-61
2022/11/20 06:26:16;;;;;;;;;;;;;;;24.65;46.78;93874.88;5005380;28;7268;-61
2022/11/20 06:28:46;;;;;;;;;;;;;;;24.63;46.21;93877.41;5003330;28;9651;-61
2022/11/20 06:31:17;;;;;;;;;;;;;;;24.64;46.86;93878.88;5002827;28;7241;-61
2022/11/20 06:33:46;;;;;;;;;;;;;;;24.64;46.37;93876.13;4989012;28;9240;-61
2022/11/20 06:36:15;;;;;;;;;;;;;;;24.66;45.97;93873.59;4989934;28;7309;-61
2022/11/20 06:38:41;;;;;;;;;;;;;;;24.67;46.22;93879.84;4989745;28;7415;-61
2022/11/20 06:41:15;;;;;;;;;;;;;;;24.66;45.60;93881.84;4985946;28;9414;-61
2022/11/20 06:43:42;;;;;;;;;;;;;;;24.68;44.77;93876.56;4988962;28;7059;-60
2022/11/20 06:46:13;;;;;;;;;;;;;;;24.66;45.63;93881.13;4989348;28;8549;-61
2022/11/20 06:48:42;;;;;;;;;;;;;;;24.67;45.63;93877.84;4989000;28;7057;-60
2022/11/20 06:51:09;;;;;;;;;;;;;;;24.68;45.72;93884.81;4976792;28;7280;-61
2022/11/20 06:53:36;;;;;;;;;;;;;;;24.64;45.93;93878.88;4999664;28;7258;-60
2022/11/20 06:56:08;;;;;;;;;;;;;;;24.64;45.96;93883.66;4993710;28;7272;-61
2022/11/20 06:58:35;;;;;;;;;;;;;;;24.64;46.11;93889.16;4997501;28;7258;-61
2022/11/20 07:01:08;;;;;;;;;;;;;;;24.63;46.11;93891.16;4995277;28;9068;-61
2022/11/20 07:03:35;;;;;;;;;;;;;;;24.63;45.91;93902.16;4979004;28;7053;-61
2022/11/20 07:06:04;;;;;;;;;;;;;;;24.63;46.32;93904.91;4998874;28;9081;-61
2022/11/20 07:09:07;;;;;;;;;;;;;;;24.62;46.27;93911.66;4981594;28;9730;-61
2022/11/20 07:11:47;;;;;;;;;;;;;;;24.62;46.24;93917.13;4980067;28;9319;-61
2022/11/20 07:14:22;;;;;;;;;;;;;;;24.61;46.64;93914.91;4990385;28;8988;-60
2022/11/20 07:17:09;;;;;;;;;;;;;;;24.61;45.98;93923.16;4990120;28;7369;-61
2022/11/20 07:19:36;;;;;;;;;;;;;;;24.61;45.88;93932.16;4986656;28;7331;-60
2022/11/20 07:22:02;;;;;;;;;;;;;;;24.62;46.31;93933.63;4989525;28;9355;-60
2022/11/20 07:24:47;;;;;;;;;;;;;;;24.61;46.29;93940.41;4980572;28;7165;-61
2022/11/20 07:27:13;;;;;;;;;;;;;;;24.63;46.28;93934.38;4990607;28;9297;-60
2022/11/20 07:29:39;;;;;;;;;;;;;;;24.65;46.68;93943.63;4973991;28;7707;-60
2022/11/20 07:32:06;;;;;;;;;;;;;;;24.65;46.34;93940.88;4974038;28;7224;-61
2022/11/20 07:34:33;;;;;;;;;;;;;;;24.71;45.90;93944.31;4969119;28;6949;-60
2022/11/20 07:37:08;;;;;;;;;;;;;;;24.77;46.19;93935.28;4969163;28;7275;-60
2022/11/20 07:39:34;;;;;;;;;;;;;;;24.80;45.52;93937.00;4988985;28;8285;-60
2022/11/20 07:42:02;;;;;;;;;;;;;;;24.83;45.58;93944.22;4972388;28;9701;-61
2022/11/20 07:44:35;;;;;;;;;;;;;;;24.88;45.40;93940.66;4989483;28;9295;-60
2022/11/20 07:47:02;;;;;;;;;;;;;;;24.87;45.86;93948.19;4982536;28;8315;-61
2022/11/20 07:49:34;;;;;;;;;;;;;;;24.90;45.11;93943.66;4984074;28;7734;-60
2022/11/20 07:52:00;;;;;;;;;;;;;;;24.90;45.50;93940.91;4979958;28;8232;-61
2022/11/20 07:54:26;;;;;;;;;;;;;;;24.91;45.87;93939.63;4982302;28;8969;-61
2022/11/20 07:56:53;;;;;;;;;;;;;;;24.87;45.17;93937.16;4981295;28;7268;-61
2022/11/20 07:59:22;;;;;;;;;;;;;;;24.87;45.29;93933.66;4987020;28;7021;-61
2022/11/20 08:01:49;;;;;;;;;;;;;;;24.90;45.59;93927.16;5001363;28;7518;-62
2022/11/20 08:04:25;;;;;;;;;;;;;;;24.88;44.73;93935.16;4982134;28;9883;-61
2022/11/20 08:07:04;;;;;;;;;;;;;;;24.89;45.60;93931.16;5000842;28;7477;-62
2022/11/20 08:09:30;;;;;;;;;;;;;;;24.91;44.68;93936.88;4987348;28;9159;-62
2022/11/20 08:14:49;;;;;;;;;;;;;;;24.95;45.24;93945.56;4988008;28;7132;-61
2022/11/20 08:17:18;;;;;;;;;;;;;;;24.97;45.04;93951.34;4978319;28;7628;-61
2022/11/20 08:19:44;;;;;;;;;;;;;;;24.93;45.20;93948.84;4991783;28;9419;-61
2022/11/20 08:22:09;;;;;;;;;;;;;;;24.97;45.50;93960.31;4988965;28;7141;-61
2022/11/20 08:24:38;;;;;;;;;;;;;;;24.98;45.06;93952.81;4990335;28;7156;-61
2022/11/20 08:27:03;;;;;;;;;;;;;;;24.97;44.67;93949.31;4981316;28;7179;-61
2022/11/20 08:29:29;;;;;;;;;;;;;;;24.95;44.89;93951.84;4980346;28;6980;-61
2022/11/20 08:31:55;;;;;;;;;;;;;;;24.92;45.20;93949.38;4988629;28;7411;-61
2022/11/20 08:34:21;;;;;;;;;;;;;;;24.85;45.51;93952.69;4994183;28;7023;-61
2022/11/20 08:36:49;;;;;;;;;;;;;;;24.86;45.03;93960.44;4984050;28;7103;-61
2022/11/20 08:39:48;;;;;;;;;;;;;;;24.84;45.88;93954.69;4984385;28;9103;-62
2022/11/20 08:42:28;;;;;;;;;;;;;;;24.83;45.24;93966.22;4987245;28;7076;-61
2022/11/20 08:45:13;;;;;;;;;;;;;;;24.80;45.29;93961.75;4987199;28;6991;-61
2022/11/20 08:47:41;;;;;;;;;;;;;;;24.77;45.23;93960.78;4972685;28;7056;-61
2022/11/20 08:50:07;;;;;;;;;;;;;;;24.77;45.76;93969.03;4985224;28;7385;-61
2022/11/20 08:52:33;;;;;;;;;;;;;;;24.76;46.04;93975.78;4987817;28;8657;-61
2022/11/20 08:55:01;;;;;;;;;;;;;;;24.75;45.95;93971.53;4968140;28;7012;-61
2022/11/20 08:57:31;;;;;;;;;;;;;;;24.79;45.92;93971.28;4966199;28;7285;-61
2022/11/20 09:00:09;;;;;;;;;;;;;;;24.80;45.57;93970.75;4960547;28;7132;-62
2022/11/20 09:02:35;;;;;;;;;;;;;;;24.77;45.62;93974.53;4989131;28;7224;-62
2022/11/20 09:05:10;;;;;;;;;;;;;;;24.76;46.18;93970.28;4972313;28;7438;-62
2022/11/20 09:07:37;;;;;;;;;;;;;;;24.77;46.13;93968.28;4962409;28;7242;-61
2022/11/20 09:10:03;;;;;;;;;;;;;;;24.78;46.58;93975.28;4982649;28;9015;-61
2022/11/20 09:12:29;;;;;;;;;;;;;;;24.76;46.88;93966.78;4983626;28;9329;-61
2022/11/20 09:14:57;;;;;;;;;;;;;;;24.68;46.89;93956.31;4981654;28;7428;-61
2022/11/20 09:17:23;;;;;;;;;;;;;;;24.71;47.03;93966.31;4970178;28;7246;-62
2022/11/20 09:19:49;;;;;;;;;;;;;;;24.69;46.92;93963.31;4978257;28;7151;-61
2022/11/20 09:22:15;;;;;;;;;;;;;;;24.68;46.93;93955.59;4982937;28;7167;-61
2022/11/20 09:24:43;;;;;;;;;;;;;;;24.68;46.95;93966.59;4992767;28;7055;-61
2022/11/20 09:27:21;;;;;;;;;;;;;;;24.71;47.15;93960.06;5004033;28;9021;-61
2022/11/20 09:30:14;;;;;;;;;;;;;;;24.70;47.35;93953.81;4989212;28;7228;-61
2022/11/20 09:32:43;;;;;;;;;;;;;;;24.71;46.47;93960.06;4988294;28;7314;-61
2022/11/20 09:35:26;;;;;;;;;;;;;;;24.70;47.10;93962.09;4973525;28;8964;-62
2022/11/20 09:37:54;;;;;;;;;;;;;;;24.77;46.96;93962.78;4972947;28;7016;-62
2022/11/20 09:40:33;;;;;;;;;;;;;;;24.73;47.43;93958.28;4975659;28;7026;-61
2022/11/20 09:43:25;;;;;;;;;;;;;;;24.73;47.50;93963.78;4984359;28;8509;-61
2022/11/20 09:46:17;;;;;;;;;;;;;;;24.73;46.99;93969.28;4981965;28;10490;-61
2022/11/20 09:48:46;;;;;;;;;;;;;;;24.72;47.28;93967.06;4980050;28;7180;-61
2022/11/20 09:51:24;;;;;;;;;;;;;;;24.73;48.19;93968.53;4964483;28;7255;-61
2022/11/20 09:54:08;;;;;;;;;;;;;;;24.73;47.62;93974.03;4971401;28;7136;-61
2022/11/20 09:56:44;;;;;;;;;;;;;;;24.73;47.62;93967.81;4968923;28;9208;-61
2022/11/20 09:59:41;;;;;;;;;;;;;;;24.74;48.11;93975.53;4980895;28;7542;-61
2022/11/20 10:02:18;;;;;;;;;;;;;;;24.76;47.22;93972.28;4969983;28;7690;-61
2022/11/20 10:04:57;;;;;;;;;;;;;;;24.78;47.54;93967.00;4979970;28;9082;-61
2022/11/20 10:07:38;;;;;;;;;;;;;;;24.77;47.37;93971.78;4975692;28;7042;-61
2022/11/20 10:10:17;;;;;;;;;;;;;;;24.78;47.01;93964.25;4984302;28;8680;-61
2022/11/20 10:13:19;;;;;;;;;;;;;;;24.78;47.14;93965.03;4985947;28;7243;-61
2022/11/20 10:16:10;;;;;;;;;;;;;;;24.77;47.04;93958.03;4987954;28;9756;-61
2022/11/20 10:18:58;;;;;;;;;;;;;;;24.79;47.73;93960.28;4991543;28;8854;-61
2022/11/20 10:21:50;;;;;;;;;;;;;;;24.78;46.92;93958.75;4987380;28;7906;-62
2022/11/20 10:24:43;;;;;;;;;;;;;;;24.75;47.87;93960.53;4983272;28;8732;-62
2022/11/20 10:27:12;;;;;;;;;;;;;;;24.79;47.60;93966.53;4987286;28;7148;-61
2022/11/20 10:29:46;;;;;;;;;;;;;;;24.85;46.99;93956.19;4996796;28;7208;-61
2022/11/20 10:32:34;;;;;;;;;;;;;;;24.93;46.85;93957.09;4985781;28;7026;-61
2022/11/20 10:35:49;;;;;;;;;;;;;;;24.96;47.33;93963.59;4986474;28;7216;-61
2022/11/20 10:38:44;;;;;;;;;;;;;;;24.94;46.96;93958.59;4973753;28;7272;-62
2022/11/20 10:41:24;;;;;;;;;;;;;;;24.91;47.02;93961.63;4973520;28;7060;-62
2022/11/20 10:47:14;;;;;;;;;;;;;;;24.89;47.25;93953.16;4911117;29;7018;-61
2022/11/20 10:49:43;;;;;;;;;;;;;;;24.90;47.44;93951.91;4910390;29;7035;-61
2022/11/20 10:52:30;;;;;;;;;;;;;;;24.89;46.57;93953.91;4915288;29;9495;-61
2022/11/20 10:55:30;;;;;;;;;;;;;;;24.86;47.60;93943.91;4901292;29;9119;-61
2022/11/20 10:58:10;;;;;;;;;;;;;;;24.88;47.58;93944.16;4906688;29;7051;-61
2022/11/20 11:00:38;;;;;;;;;;;;;;;24.89;47.88;93945.66;4897454;29;7216;-61
2022/11/20 11:03:25;;;;;;;;;;;;;;;24.92;47.57;93946.63;4914066;29;7383;-61
2022/11/20 11:06:06;;;;;;;;;;;;;;;24.94;47.29;93939.34;4908013;29;7293;-61
2022/11/20 11:08:40;;;;;;;;;;;;;;;24.95;47.43;93931.81;4897622;29;6969;-61
2022/11/20 11:11:28;;;;;;;;;;;;;;;24.93;47.74;93923.34;4916121;29;9401;-61
2022/11/20 11:14:29;;;;;;;;;;;;;;;24.96;46.96;93925.06;4907007;29;7232;-61
2022/11/20 11:16:57;;;;;;;;;;;;;;;24.97;47.84;93912.81;4930615;29;9047;-61
2022/11/20 11:19:24;;;;;;;;;;;;;;;24.97;47.51;93908.03;4933385;28;8024;-61
2022/11/20 11:21:57;;;;;;;;;;;;;;;24.99;47.92;93902.03;4893148;29;10157;-61
2022/11/20 11:24:29;;;;;;;;;;;;;;;25.00;47.43;93904.25;4958514;28;7658;-61
2022/11/20 11:27:10;;;;;;;;;;;;;;;25.00;48.01;93898.00;5008058;28;7525;-61
2022/11/20 11:29:36;;;;;;;;;;;;;;;24.99;47.72;93893.78;5007839;28;8732;-62
2022/11/20 11:32:30;;;;;;;;;;;;;;;25.01;48.19;93902.25;5000192;28;7445;-61
2022/11/20 11:35:22;;;;;;;;;;;;;;;25.02;48.48;93892.72;4916480;29;7131;-61
2022/11/20 11:37:51;;;;;;;;;;;;;;;25.02;47.99;93884.47;4926869;29;8146;-61
2022/11/20 11:40:19;;;;;;;;;;;;;;;25.02;48.13;93884.47;4925946;29;7052;-61
2022/11/20 11:42:59;;;;;;;;;;;;;;;25.05;48.52;93895.19;4932199;29;7273;-61
2022/11/20 11:45:30;;;;;;;;;;;;;;;25.10;48.10;93894.38;4937038;29;8547;-61
2022/11/20 11:48:03;;;;;;;;;;;;;;;25.14;48.61;93885.84;4928111;29;7484;-61
2022/11/20 11:50:30;;;;;;;;;;;;;;;25.16;48.50;93881.31;4904312;29;7103;-61
2022/11/20 11:53:02;;;;;;;;;;;;;;;25.16;47.85;93877.81;4913416;29;7515;-61
2022/11/20 11:55:41;;;;;;;;;;;;;;;25.15;48.58;93873.56;4916150;29;6967;-61
2022/11/20 11:58:42;;;;;;;;;;;;;;;25.22;47.58;93881.22;4911000;29;7314;-61
2022/11/20 12:01:40;;;;;;;;;;;;;;;25.20;47.61;93873.50;4893795;29;7700;-61
2022/11/20 12:04:24;;;;;;;;;;;;;;;25.23;47.56;93877.19;4892525;29;9672;-61
2022/11/20 12:07:04;;;;;;;;;;;;;;;25.22;47.25;93872.97;4879118;29;7400;-61
2022/11/20 12:09:48;;;;;;;;;;;;;;;25.23;47.08;93863.44;4876707;29;9518;-62
2022/11/20 12:12:32;;;;;;;;;;;;;;;25.25;47.56;93864.41;4919742;28;7449;-62
2022/11/20 12:14:58;;;;;;;;;;;;;;;25.27;47.56;93861.88;4949208;28;9501;-62
2022/11/20 12:17:24;;;;;;;;;;;;;;;25.24;47.64;93856.66;4949570;28;8759;-62
2022/11/20 12:19:53;;;;;;;;;;;;;;;25.23;47.47;93855.16;4929512;28;9399;-61
2022/11/20 12:22:28;;;;;;;;;;;;;;;25.21;47.57;93849.44;4950925;28;7057;-61
2022/11/20 12:25:03;;;;;;;;;;;;;;;25.23;47.65;93855.91;4944796;28;9223;-62
2022/11/20 12:27:32;;;;;;;;;;;;;;;25.24;47.58;93851.16;4950302;28;8350;-61
2022/11/20 12:30:29;;;;;;;;;;;;;;;25.27;47.19;93850.13;4952069;28;7542;-62
2022/11/20 12:33:34;;;;;;;;;;;;;;;25.29;46.98;93836.59;4929533;29;8529;-61
2022/11/20 12:36:40;;;;;;;;;;;;;;;25.27;47.12;93830.88;4927373;29;7276;-61
2022/11/20 12:39:18;;;;;;;;;;;;;;;25.30;47.21;93825.06;4929574;29;9074;-61
2022/11/20 12:45:11;;;;;;;;;;;;;;;25.31;46.45;93828.56;4931897;29;7277;-61
2022/11/20 12:48:04;;;;;;;;;;;;;;;25.32;46.26;93825.28;4924162;29;9059;-61
2022/11/20 12:50:48;;;;;;;;;;;;;;;25.30;46.53;93816.03;4914398;29;7244;-61
2022/11/20 12:53:39;;;;;;;;;;;;;;;25.30;46.80;93808.53;4913638;29;7221;-61
2022/11/20 12:56:43;;;;;;;;;;;;;;;25.31;47.10;93815.53;4912816;29;7144;-61
2022/11/20 12:59:34;;;;;;;;;;;;;;;25.30;46.38;93799.53;4913322;29;7263;-61
2022/11/20 13:02:55;;;;;;;;;;;;;;;25.36;46.93;93803.69;4930392;28;7713;-61
2022/11/20 13:05:36;;;;;;;;;;;;;;;25.35;46.41;93802.22;4954554;28;9618;-61
2022/11/20 13:08:21;;;;;;;;;;;;;;;25.41;46.69;93789.09;4954252;28;7094;-61
2022/11/20 13:10:51;;;;;;;;;;;;;;;25.46;46.21;93795.06;4982664;28;7470;-62
2022/11/20 13:13:55;;;;;;;;;;;;;;;25.48;46.84;93782.28;4987942;28;7310;-61
2022/11/20 13:16:42;;;;;;;;;;;;;;;25.51;46.52;93772.22;4973403;28;8951;-62
2022/11/20 13:19:14;;;;;;;;;;;;;;;25.53;45.98;93773.19;4975991;28;7455;-61
2022/11/20 13:21:44;;;;;;;;;;;;;;;25.56;46.56;93769.38;4993273;28;7112;-61
2022/11/20 13:24:22;;;;;;;;;;;;;;;25.61;46.64;93768.53;4977968;28;7088;-61
2022/11/20 13:27:00;;;;;;;;;;;;;;;25.63;46.12;93766.00;4974185;28;7455;-61
2022/11/20 13:29:35;;;;;;;;;;;;;;;25.66;45.95;93778.75;4987872;28;7009;-61
2022/11/20 13:32:31;;;;;;;;;;;;;;;25.67;46.81;93768.44;4989452;28;7035;-62
2022/11/20 13:35:08;;;;;;;;;;;;;;;25.70;46.00;93776.41;4909634;29;7061;-62
2022/11/20 13:37:40;;;;;;;;;;;;;;;25.70;46.34;93773.66;4931462;28;8448;-61
2022/11/20 13:40:08;;;;;;;;;;;;;;;25.74;46.28;93776.84;4918902;29;7206;-61
2022/11/20 13:42:54;;;;;;;;;;;;;;;25.74;46.35;93765.81;4913235;28;9143;-62
2022/11/20 13:45:26;;;;;;;;;;;;;;;25.79;46.26;93762.25;4928545;28;7148;-61
2022/11/20 13:47:57;;;;;;;;;;;;;;;25.81;46.40;93756.94;4929928;29;7024;-61
2022/11/20 13:50:44;;;;;;;;;;;;;;;25.85;45.83;93749.09;4933665;28;8559;-62
2022/11/20 13:53:39;;;;;;;;;;;;;;;25.89;46.43;93748.78;4916843;29;7457;-62